createdAt,value
2023-04-03T00:02:55.612Z,6.20
2023-04-03T00:05:57.617Z,5.27
2023-04-03T00:08:59.244Z,4.70
2023-04-03T00:12:01.159Z,4.30
2023-04-03T00:15:02.968Z,7.10
2023-04-03T00:18:05.195Z,5.87
2023-04-03T00:21:07.554Z,8.17
2023-04-03T00:24:09.161Z,5.07
2023-04-03T00:27:12.209Z,5.00
2023-04-03T00:30:18.081Z,4.90
2023-04-03T00:33:22.836Z,5.73
2023-04-03T00:36:24.832Z,5.03
2023-04-03T00:39:26.725Z,5.13
2023-04-03T00:42:28.465Z,8.30
2023-04-03T00:45:37.455Z,5.50
2023-04-03T00:48:41.604Z,6.73
2023-04-03T00:51:43.449Z,4.43
2023-04-03T00:54:46.999Z,6.77
2023-04-03T00:57:48.890Z,3.60
2023-04-03T01:00:57.120Z,3.87
2023-04-03T01:04:04.055Z,5.07
2023-04-03T01:07:08.147Z,4.30
2023-04-03T01:10:11.695Z,5.23
2023-04-03T01:13:29.838Z,3.60
2023-04-03T01:16:32.870Z,5.87
2023-04-03T01:19:36.131Z,3.33
2023-04-03T01:22:57.059Z,3.17
2023-04-03T01:25:58.870Z,2.73
2023-04-03T01:29:01.089Z,3.27
2023-04-03T01:32:04.037Z,2.17
2023-04-03T01:35:08.021Z,3.27
2023-04-03T01:38:09.785Z,2.90
2023-04-03T01:41:11.685Z,5.53
2023-04-03T01:44:13.570Z,3.13
2023-04-03T01:47:15.495Z,4.37
2023-04-03T01:50:17.298Z,3.23
2023-04-03T01:53:19.896Z,2.93
2023-04-03T01:56:22.146Z,5.70
2023-04-03T01:59:24.247Z,6.63
2023-04-03T02:02:26.948Z,3.83
2023-04-03T02:05:28.673Z,5.00
2023-04-03T02:08:30.416Z,6.33
2023-04-03T02:11:32.402Z,4.80
2023-04-03T02:14:34.082Z,6.30
2023-04-03T02:17:36.112Z,9.73
2023-04-03T02:20:38.019Z,5.10
2023-04-03T02:23:40.615Z,6.93
2023-04-03T02:26:42.262Z,5.03
2023-04-03T02:29:43.918Z,8.23
2023-04-03T02:32:46.007Z,8.17
2023-04-03T02:35:54.206Z,4.30
2023-04-03T02:38:57.154Z,4.00
2023-04-03T02:41:58.829Z,2.93
2023-04-03T02:45:01.528Z,6.60
2023-04-03T02:48:03.299Z,7.57
2023-04-03T02:51:05.190Z,3.90
2023-04-03T02:54:06.998Z,5.60
2023-04-03T02:57:11.206Z,5.17
2023-04-03T03:00:13.142Z,5.03
2023-04-03T03:03:15.946Z,3.63
2023-04-03T03:06:18.063Z,11.17
2023-04-03T03:09:19.818Z,5.33
2023-04-03T03:12:22.888Z,5.10
2023-04-03T03:15:25.173Z,4.97
2023-04-03T03:18:27.182Z,8.07
2023-04-03T03:21:28.835Z,5.03
2023-04-03T03:24:30.893Z,6.33
2023-04-03T03:27:32.560Z,6.07
2023-04-03T03:30:34.703Z,9.40
2023-04-03T03:33:36.557Z,6.87
2023-04-03T03:36:38.223Z,5.63
2023-04-03T03:39:39.907Z,6.93
2023-04-03T03:42:41.716Z,4.87
2023-04-03T03:45:43.692Z,6.00
2023-04-03T03:48:45.391Z,5.10
2023-04-03T03:51:47.951Z,10.00
2023-04-03T03:54:50.002Z,6.47
2023-04-03T03:57:52.111Z,8.17
2023-04-03T04:00:53.930Z,6.83
2023-04-03T04:03:56.620Z,7.70
2023-04-03T04:07:02.312Z,7.80
2023-04-03T04:10:05.892Z,8.73
2023-04-03T04:13:07.789Z,14.47
2023-04-03T04:16:10.969Z,18.43
2023-04-03T04:19:13.800Z,14.47
2023-04-03T04:22:15.542Z,15.37
2023-04-03T04:25:18.273Z,13.37
2023-04-03T04:28:19.968Z,13.27
2023-04-03T04:31:24.152Z,9.40
2023-04-03T04:34:26.852Z,8.30
2023-04-03T04:37:28.720Z,10.57
2023-04-03T04:40:30.900Z,7.00
2023-04-03T04:43:34.393Z,21.23
2023-04-03T04:46:36.951Z,14.27
2023-04-03T04:49:39.763Z,17.63
2023-04-03T04:52:42.545Z,12.43
2023-04-03T04:55:44.987Z,13.27
2023-04-03T04:58:46.951Z,12.13
2023-04-03T05:01:48.688Z,11.57
2023-04-03T05:04:53.289Z,11.20
2023-04-03T05:07:59.270Z,5.77
2023-04-03T05:11:01.552Z,8.30
2023-04-03T05:14:06.328Z,12.97
2023-04-03T05:17:09.486Z,10.03
2023-04-03T05:20:20.693Z,8.60
2023-04-03T05:23:23.921Z,6.43
2023-04-03T05:26:26.600Z,9.40
2023-04-03T05:29:28.566Z,15.77
2023-04-03T05:32:32.790Z,14.23
2023-04-03T05:35:52.281Z,16.90
2023-04-03T05:38:59.227Z,10.83
2023-04-03T05:42:01.482Z,22.80
2023-04-03T05:45:03.735Z,14.63
2023-04-03T05:48:05.724Z,10.53
2023-04-03T05:51:08.194Z,6.90
2023-04-03T05:54:15.775Z,14.57
2023-04-03T05:57:19.070Z,9.73
2023-04-03T06:00:22.229Z,10.23
2023-04-03T06:03:32.688Z,11.43
2023-04-03T06:06:45.435Z,12.33
2023-04-03T06:09:47.250Z,13.07
2023-04-03T06:12:49.378Z,14.53
2023-04-03T06:15:51.182Z,12.00
2023-04-03T06:18:52.956Z,12.53
2023-04-03T06:21:54.860Z,12.40
2023-04-03T06:24:56.891Z,11.33
2023-04-03T06:27:58.801Z,13.33
2023-04-03T06:31:00.527Z,11.27
2023-04-03T06:34:02.384Z,8.93
2023-04-03T06:37:03.965Z,10.93
2023-04-03T06:40:06.485Z,10.07
2023-04-03T06:43:08.600Z,8.70
2023-04-03T06:46:17.663Z,17.73
2023-04-03T06:49:19.262Z,11.83
2023-04-03T06:52:21.813Z,7.53
2023-04-03T06:55:23.581Z,8.97
2023-04-03T06:58:25.257Z,14.40
2023-04-03T07:01:28.899Z,9.33
2023-04-03T07:04:30.991Z,16.83
2023-04-03T07:07:34.146Z,25.07
2023-04-03T07:10:35.736Z,9.47
2023-04-03T07:13:37.443Z,35.10
2023-04-03T07:16:40.851Z,10.97
2023-04-03T07:19:43.456Z,2.53
2023-04-03T07:22:45.173Z,6.73
2023-04-03T07:25:47.607Z,4.53
2023-04-03T07:28:49.777Z,5.20
2023-04-03T07:31:51.550Z,2.80
2023-04-03T07:34:53.227Z,6.07
2023-04-03T07:37:54.883Z,2.17
2023-04-03T07:40:56.679Z,2.87
2023-04-03T07:43:58.640Z,2.23
2023-04-03T07:47:00.954Z,2.60
2023-04-03T07:50:02.644Z,3.33
2023-04-03T07:53:04.645Z,3.33
2023-04-03T07:56:06.510Z,2.70
2023-04-03T07:59:09.058Z,6.30
2023-04-03T08:02:11.401Z,1.63
2023-04-03T08:05:13.363Z,4.33
2023-04-03T08:08:17.106Z,11.87
2023-04-03T08:11:19.902Z,7.20
2023-04-03T08:14:21.918Z,3.40
2023-04-03T08:17:23.645Z,11.70
2023-04-03T08:20:25.890Z,5.20
2023-04-03T08:23:27.935Z,3.00
2023-04-03T08:26:29.574Z,4.10
2023-04-03T08:29:32.457Z,10.50
2023-04-03T08:32:36.163Z,6.23
2023-04-03T08:35:41.942Z,2.87
2023-04-03T08:38:43.734Z,3.97
2023-04-03T08:41:47.557Z,12.13
2023-04-03T08:44:56.358Z,1.97
2023-04-03T08:47:58.045Z,1.40
2023-04-03T08:51:03.345Z,6.77
2023-04-03T08:54:09.270Z,6.23
2023-04-03T08:57:12.631Z,2.00
2023-04-03T09:00:14.345Z,3.70
2023-04-03T09:03:19.117Z,3.20
2023-04-03T09:06:31.598Z,3.30
2023-04-03T09:09:43.232Z,6.03
2023-04-03T09:12:51.683Z,1.73
2023-04-03T09:15:54.771Z,7.23
2023-04-03T09:19:08.478Z,3.90
2023-04-03T09:22:14.670Z,2.90
2023-04-03T09:25:18.317Z,5.37
2023-04-03T09:28:20.353Z,7.67
2023-04-03T09:31:22.163Z,4.50
2023-04-03T09:34:25.444Z,8.40
2023-04-03T09:37:39.906Z,7.17
2023-04-03T09:40:44.123Z,5.00
2023-04-03T09:43:53.328Z,4.97
2023-04-03T09:46:55.097Z,5.37
2023-04-03T09:50:15.339Z,3.53
2023-04-03T09:53:36.679Z,4.33
2023-04-03T09:56:38.335Z,8.07
2023-04-03T09:59:48.390Z,6.90
2023-04-03T10:02:59.373Z,3.10
2023-04-03T10:06:01.220Z,3.33
2023-04-03T10:09:07.855Z,3.70
2023-04-03T10:12:15.658Z,6.90
2023-04-03T10:15:19.728Z,5.50
2023-04-03T10:18:26.988Z,1.53
2023-04-03T10:21:47.544Z,2.33
2023-04-03T10:25:04.561Z,3.73
2023-04-03T10:28:20.411Z,5.60
2023-04-03T10:31:25.136Z,3.67
2023-04-03T10:34:40.691Z,1.40
2023-04-03T10:37:42.915Z,2.90
2023-04-03T10:40:44.528Z,2.30
2023-04-03T10:44:04.914Z,1.60
2023-04-03T10:47:11.097Z,1.90
2023-04-03T10:50:24.995Z,1.77
2023-04-03T10:53:35.996Z,9.23
2023-04-03T10:56:40.446Z,3.67
2023-04-03T10:59:52.837Z,5.37
2023-04-03T11:02:58.877Z,2.57
2023-04-03T11:06:02.268Z,3.93
2023-04-03T11:09:09.949Z,3.20
2023-04-03T11:12:15.004Z,2.50
2023-04-03T11:15:18.916Z,2.77
2023-04-03T11:18:23.781Z,3.50
2023-04-03T11:21:28.901Z,6.10
2023-04-03T11:24:32.504Z,3.00
2023-04-03T11:27:45.001Z,1.20
2023-04-03T11:31:05.460Z,5.13
2023-04-03T11:34:13.337Z,5.13
2023-04-03T11:37:18.483Z,4.73
2023-04-03T11:40:25.655Z,4.77
2023-04-03T11:43:32.341Z,4.27
2023-04-03T11:46:57.032Z,5.00
2023-04-03T11:50:00.433Z,4.67
2023-04-03T11:53:03.680Z,3.30
2023-04-03T11:56:24.118Z,3.77
2023-04-03T11:59:26.073Z,2.37
2023-04-03T12:02:51.213Z,2.50
2023-04-03T12:05:58.440Z,4.80
2023-04-03T12:09:00.257Z,3.43
2023-04-03T12:12:03.044Z,3.67
2023-04-03T12:15:20.345Z,3.37
2023-04-03T12:18:40.150Z,3.73
2023-04-03T12:21:47.654Z,5.83
2023-04-03T12:24:51.248Z,2.60
2023-04-03T12:27:54.075Z,3.23
2023-04-03T12:30:55.880Z,4.37
2023-04-03T12:34:25.496Z,4.50
2023-04-03T12:37:42.545Z,3.13
2023-04-03T12:40:50.564Z,3.43
2023-04-03T12:44:11.333Z,4.27
2023-04-03T12:47:34.106Z,4.50
2023-04-03T12:50:35.899Z,3.03
2023-04-03T12:53:39.413Z,3.20
2023-04-03T12:56:41.371Z,3.47
2023-04-03T12:59:47.595Z,6.23
2023-04-03T13:02:49.410Z,3.90
2023-04-03T13:05:51.748Z,3.03
2023-04-03T13:09:01.327Z,3.13
2023-04-03T13:12:09.239Z,4.10
2023-04-03T13:15:17.573Z,4.67
2023-04-03T13:18:37.705Z,6.80
2023-04-03T13:21:39.464Z,7.53
2023-04-03T13:24:41.268Z,7.20
2023-04-03T13:27:44.942Z,7.50
2023-04-03T13:30:58.059Z,10.47
2023-04-03T13:34:04.271Z,5.10
2023-04-03T13:37:05.911Z,7.17
2023-04-03T13:40:07.917Z,7.77
2023-04-03T13:43:21.168Z,13.83
2023-04-03T13:46:24.751Z,15.70
2023-04-03T13:49:37.519Z,10.23
2023-04-03T13:52:44.001Z,6.03
2023-04-03T13:55:56.761Z,5.47
2023-04-03T13:59:05.304Z,3.83
2023-04-03T14:02:10.034Z,7.27
2023-04-03T14:05:11.751Z,8.77
2023-04-03T14:08:13.425Z,11.17
2023-04-03T14:11:16.559Z,11.20
2023-04-03T14:14:23.824Z,7.17
2023-04-03T14:17:27.537Z,11.20
2023-04-03T14:20:29.273Z,11.40
2023-04-03T14:23:32.053Z,36.37
2023-04-03T14:26:33.908Z,17.27
2023-04-03T14:29:35.725Z,16.70
2023-04-03T14:32:38.037Z,18.33
2023-04-03T14:35:39.797Z,24.00
2023-04-03T14:38:42.140Z,21.77
2023-04-03T14:41:44.427Z,30.53
2023-04-03T14:44:46.295Z,27.37
2023-04-03T14:47:54.936Z,27.83
2023-04-03T14:51:05.236Z,24.47
2023-04-03T14:54:13.775Z,22.20
2023-04-03T14:57:16.637Z,18.50
2023-04-03T15:00:19.795Z,31.73
2023-04-03T15:03:22.665Z,28.30
2023-04-03T15:06:25.940Z,17.63
2023-04-03T15:09:28.420Z,32.33
2023-04-03T15:12:30.159Z,27.87
2023-04-03T15:15:32.084Z,11.57
2023-04-03T15:18:38.695Z,31.47
2023-04-03T15:21:40.516Z,18.50
2023-04-03T15:24:42.894Z,26.13
2023-04-03T15:27:44.757Z,24.37
2023-04-03T15:30:46.729Z,23.27
2023-04-03T15:33:48.442Z,25.70
2023-04-03T15:36:51.180Z,24.00
2023-04-03T15:39:52.955Z,23.60
2023-04-03T15:42:55.023Z,23.77
2023-04-03T15:46:00.466Z,24.40
2023-04-03T15:49:02.181Z,24.23
2023-04-03T15:52:04.286Z,24.40
2023-04-03T15:55:07.076Z,19.70
2023-04-03T15:58:08.877Z,23.27
2023-04-03T16:01:12.322Z,37.63
2023-04-03T16:04:15.615Z,25.03
2023-04-03T16:07:17.630Z,19.93
2023-04-03T16:10:19.594Z,22.50
2023-04-03T16:13:21.318Z,32.90
2023-04-03T16:16:24.712Z,32.67
2023-04-03T16:19:26.591Z,32.33
2023-04-03T16:22:29.036Z,38.27
2023-04-03T16:25:35.067Z,28.40
2023-04-03T16:28:36.961Z,23.23
2023-04-03T16:31:38.634Z,60.50
2023-04-03T16:34:41.998Z,83.13
2023-04-03T16:37:44.285Z,43.33
2023-04-03T16:40:49.635Z,66.37
2023-04-03T16:43:51.766Z,36.50
2023-04-03T16:46:53.787Z,35.67
2023-04-03T16:49:55.576Z,29.23
2023-04-03T16:52:57.369Z,30.33
2023-04-03T16:55:59.551Z,30.80
2023-04-03T16:59:01.333Z,39.13
2023-04-03T17:02:03.751Z,24.17
2023-04-03T17:05:05.825Z,35.63
2023-04-03T17:08:07.833Z,37.67
2023-04-03T17:11:09.602Z,33.20
2023-04-03T17:14:11.360Z,29.43
2023-04-03T17:17:13.166Z,16.43
2023-04-03T17:20:15.075Z,10.13
2023-04-03T17:23:17.325Z,13.20
2023-04-03T17:26:19.054Z,18.20
2023-04-03T17:29:20.993Z,9.33
2023-04-03T17:32:22.699Z,10.50
2023-04-03T17:35:24.645Z,22.60
2023-04-03T17:38:27.169Z,42.10
2023-04-03T17:41:28.887Z,35.50
2023-04-03T17:44:30.584Z,31.10
2023-04-03T17:47:32.290Z,32.63
2023-04-03T17:50:34.080Z,25.73
2023-04-03T17:53:36.112Z,24.90
2023-04-03T17:56:37.956Z,27.97
2023-04-03T17:59:39.703Z,31.77
2023-04-03T18:02:42.492Z,31.50
2023-04-03T18:05:44.315Z,32.13
2023-04-03T18:08:50.325Z,31.73
2023-04-03T18:11:52.293Z,20.37
2023-04-03T18:14:54.489Z,22.43
2023-04-03T18:17:58.036Z,23.63
2023-04-03T18:20:59.805Z,18.80
2023-04-03T18:24:03.078Z,15.60
2023-04-03T18:27:15.507Z,11.00
2023-04-03T18:30:17.998Z,14.93
2023-04-03T18:33:19.726Z,17.87
2023-04-03T18:36:21.798Z,33.33
2023-04-03T18:39:24.873Z,16.37
2023-04-03T18:42:28.154Z,14.40
2023-04-03T18:45:30.216Z,15.50
2023-04-03T18:48:33.413Z,13.13
2023-04-03T18:51:35.541Z,66.87
2023-04-03T18:54:37.524Z,40.80
2023-04-03T18:57:39.409Z,49.30
2023-04-03T19:00:41.506Z,99.67
2023-04-03T19:03:43.469Z,51.80
2023-04-03T19:06:45.689Z,31.67
2023-04-03T19:09:47.418Z,35.10
2023-04-03T19:12:50.442Z,32.67
2023-04-03T19:15:52.807Z,31.30
2023-04-03T19:18:54.505Z,23.47
2023-04-03T19:21:56.105Z,12.87
2023-04-03T19:24:57.878Z,23.53
2023-04-03T19:27:59.953Z,33.30
2023-04-03T19:31:02.974Z,25.43
2023-04-03T19:34:05.523Z,14.00
2023-04-03T19:37:08.044Z,24.17
2023-04-03T19:40:10.171Z,14.67
2023-04-03T19:43:12.781Z,15.23
2023-04-03T19:46:14.929Z,13.83
2023-04-03T19:49:17.509Z,15.27
2023-04-03T19:52:19.191Z,17.23
2023-04-03T19:55:20.900Z,17.00
2023-04-03T19:58:23.330Z,13.10
2023-04-03T20:01:27.043Z,14.40
2023-04-03T20:04:29.008Z,23.80
2023-04-03T20:07:30.744Z,25.63
2023-04-03T20:10:32.557Z,12.10
2023-04-03T20:13:34.255Z,9.80
2023-04-03T20:16:36.245Z,10.77
2023-04-03T20:19:38.795Z,9.97
2023-04-03T20:22:41.844Z,11.77
2023-04-03T20:25:54.020Z,10.63
2023-04-03T20:29:01.585Z,12.80
2023-04-03T20:32:04.225Z,12.63
2023-04-03T20:35:06.268Z,14.30
2023-04-03T20:38:08.006Z,11.17
2023-04-03T20:41:10.355Z,16.90
2023-04-03T20:44:12.126Z,14.95
2023-04-03T20:47:14.261Z,12.97
2023-04-03T20:50:16.020Z,12.33
2023-04-03T20:53:19.076Z,12.87
2023-04-03T20:56:20.736Z,11.33
2023-04-03T20:59:23.032Z,14.13
2023-04-03T21:02:24.762Z,10.60
2023-04-03T21:05:28.636Z,11.63
2023-04-03T21:08:49.349Z,11.57
2023-04-03T21:12:09.822Z,13.07
2023-04-03T21:15:31.541Z,12.10
2023-04-03T21:18:33.257Z,11.33
2023-04-03T21:21:37.131Z,12.93
2023-04-03T21:24:38.952Z,12.47
2023-04-03T21:27:40.641Z,10.50
2023-04-03T21:30:42.686Z,10.13
2023-04-03T21:33:45.216Z,11.37
2023-04-03T21:36:49.907Z,8.47
2023-04-03T21:39:51.735Z,11.10
2023-04-03T21:42:53.925Z,7.57
2023-04-03T21:45:59.823Z,9.50
2023-04-03T21:49:01.534Z,8.03
2023-04-03T21:52:03.292Z,9.33
2023-04-03T21:55:05.182Z,10.10
2023-04-03T21:58:07.398Z,12.17
2023-04-03T22:01:13.205Z,10.57
2023-04-03T22:04:16.485Z,8.13
2023-04-03T22:07:18.185Z,7.90
2023-04-03T22:10:19.910Z,8.60
2023-04-03T22:13:21.759Z,8.37
2023-04-03T22:16:23.975Z,9.40
2023-04-03T22:19:25.809Z,8.17
2023-04-03T22:22:27.842Z,7.93
2023-04-03T22:25:29.524Z,10.40
2023-04-03T22:28:32.201Z,9.77
2023-04-03T22:31:34.664Z,9.53
2023-04-03T22:34:38.095Z,11.37
2023-04-03T22:37:39.697Z,11.40
2023-04-03T22:40:47.314Z,14.13
2023-04-03T22:43:49.108Z,10.87
2023-04-03T22:46:52.096Z,12.70
2023-04-03T22:49:53.949Z,11.40
2023-04-03T22:52:55.611Z,11.40
2023-04-03T22:55:57.813Z,19.43
2023-04-03T22:58:59.472Z,17.43
2023-04-03T23:02:01.466Z,12.93
2023-04-03T23:05:03.468Z,9.50
2023-04-03T23:08:05.109Z,11.50
2023-04-03T23:11:09.940Z,11.10
2023-04-03T23:14:11.626Z,11.20
2023-04-03T23:17:13.360Z,13.80
2023-04-03T23:20:15.563Z,10.97
2023-04-03T23:23:23.884Z,11.97
2023-04-03T23:26:26.527Z,11.73
2023-04-03T23:29:28.394Z,12.77
2023-04-03T23:32:30.303Z,12.33
2023-04-03T23:35:32.123Z,12.23
2023-04-03T23:38:34.848Z,13.57
2023-04-03T23:41:36.759Z,17.73
2023-04-03T23:44:38.487Z,14.97
2023-04-03T23:47:40.197Z,12.87
2023-04-03T23:50:43.244Z,12.23
2023-04-03T23:53:44.929Z,11.03
2023-04-03T23:56:46.589Z,10.77
2023-04-03T23:59:48.210Z,11.93
